createdAt,value
2023-03-28T00:01:11.657Z,8.98
2023-03-28T00:03:40.652Z,8.95
2023-03-28T00:06:11.269Z,7.82
2023-03-28T00:08:41.151Z,7.45
2023-03-28T00:11:12.096Z,10.45
2023-03-28T00:13:41.502Z,6.50
2023-03-28T00:16:12.559Z,12.65
2023-03-28T00:18:40.588Z,9.07
2023-03-28T00:21:10.101Z,5.60
2023-03-28T00:23:37.606Z,6.28
2023-03-28T00:26:08.908Z,4.53
2023-03-28T00:28:38.139Z,4.07
2023-03-28T00:31:06.464Z,7.05
2023-03-28T00:33:33.994Z,7.22
2023-03-28T00:36:01.738Z,5.82
2023-03-28T00:38:29.887Z,5.90
2023-03-28T00:40:57.963Z,5.45
2023-03-28T00:43:44.648Z,4.78
2023-03-28T00:46:16.085Z,7.38
2023-03-28T00:48:49.413Z,6.35
2023-03-28T00:51:18.117Z,6.93
2023-03-28T00:53:45.795Z,5.38
2023-03-28T00:56:15.602Z,5.95
2023-03-28T00:58:45.086Z,7.60
2023-03-28T01:01:14.267Z,4.80
2023-03-28T01:03:46.651Z,5.68
2023-03-28T01:06:15.244Z,8.65
2023-03-28T01:08:44.308Z,9.32
2023-03-28T01:11:12.917Z,4.25
2023-03-28T01:13:43.076Z,9.52
2023-03-28T01:16:13.611Z,10.65
2023-03-28T01:18:42.325Z,5.47
2023-03-28T01:21:21.805Z,7.07
2023-03-28T01:24:11.965Z,5.35
2023-03-28T01:26:57.715Z,6.63
2023-03-28T01:29:44.029Z,5.35
2023-03-28T01:32:40.455Z,5.95
2023-03-28T01:35:36.628Z,7.10
2023-03-28T01:38:10.623Z,8.45
2023-03-28T01:40:42.206Z,7.60
2023-03-28T01:43:15.431Z,9.27
2023-03-28T01:45:48.171Z,10.82
2023-03-28T01:48:18.819Z,5.93
2023-03-28T01:50:47.918Z,9.30
2023-03-28T01:53:21.348Z,7.32
2023-03-28T01:55:54.101Z,5.90
2023-03-28T01:58:24.546Z,7.68
2023-03-28T02:00:55.151Z,5.40
2023-03-28T02:03:25.446Z,10.10
2023-03-28T02:05:57.762Z,7.82
2023-03-28T02:08:28.423Z,10.27
2023-03-28T02:10:56.917Z,10.27
2023-03-28T02:13:26.790Z,6.57
2023-03-28T02:15:57.155Z,7.93
2023-03-28T02:18:26.108Z,7.88
2023-03-28T02:20:54.782Z,8.18
2023-03-28T02:23:24.875Z,10.43
2023-03-28T02:25:53.838Z,6.40
2023-03-28T02:28:22.617Z,12.05
2023-03-28T02:30:51.791Z,8.57
2023-03-28T02:33:33.896Z,8.70
2023-03-28T02:36:07.638Z,7.70
2023-03-28T02:38:40.717Z,8.23
2023-03-28T02:41:14.973Z,9.80
2023-03-28T02:46:18.755Z,9.50
2023-03-28T02:48:55.156Z,7.13
2023-03-28T02:51:30.473Z,10.20
2023-03-28T02:54:01.758Z,10.18
2023-03-28T02:56:37.134Z,10.40
2023-03-28T02:59:07.713Z,9.45
2023-03-28T03:01:36.865Z,16.75
2023-03-28T03:04:05.042Z,10.80
2023-03-28T03:06:35.109Z,10.30
2023-03-28T03:09:02.645Z,9.52
2023-03-28T03:11:31.628Z,8.57
2023-03-28T03:14:00.259Z,10.30
2023-03-28T03:16:29.357Z,10.15
2023-03-28T03:18:57.389Z,10.88
2023-03-28T03:21:25.683Z,8.25
2023-03-28T03:23:53.501Z,9.10
2023-03-28T03:26:21.076Z,9.90
2023-03-28T03:28:50.458Z,10.73
2023-03-28T03:31:19.672Z,10.25
2023-03-28T03:33:47.369Z,8.25
2023-03-28T03:36:17.240Z,8.32
2023-03-28T03:38:44.800Z,11.10
2023-03-28T03:41:12.393Z,8.63
2023-03-28T03:43:39.897Z,8.05
2023-03-28T03:46:09.001Z,10.63
2023-03-28T03:48:36.657Z,15.90
2023-03-28T03:51:04.225Z,14.48
2023-03-28T03:53:31.809Z,10.65
2023-03-28T03:56:01.446Z,11.65
2023-03-28T03:58:29.572Z,12.48
2023-03-28T04:00:57.744Z,8.68
2023-03-28T04:03:26.931Z,12.68
2023-03-28T04:05:55.098Z,9.60
2023-03-28T04:08:22.766Z,9.27
2023-03-28T04:10:50.510Z,16.38
2023-03-28T04:13:18.634Z,9.88
2023-03-28T04:15:46.958Z,10.13
2023-03-28T04:18:15.585Z,11.75
2023-03-28T04:20:49.670Z,11.25
2023-03-28T04:23:20.547Z,9.95
2023-03-28T04:25:50.904Z,10.82
2023-03-28T04:28:18.440Z,11.70
2023-03-28T04:30:45.958Z,9.52
2023-03-28T04:33:13.534Z,12.30
2023-03-28T04:35:41.098Z,10.85
2023-03-28T04:38:10.324Z,14.15
2023-03-28T04:40:49.938Z,10.32
2023-03-28T04:43:17.438Z,11.55
2023-03-28T04:45:48.433Z,10.73
2023-03-28T04:48:32.362Z,12.60
2023-03-28T04:50:59.866Z,16.20
2023-03-28T04:53:28.681Z,11.13
2023-03-28T04:55:56.189Z,9.00
2023-03-28T04:58:24.515Z,15.90
2023-03-28T05:00:52.191Z,13.45
2023-03-28T05:03:21.257Z,13.85
2023-03-28T05:05:49.830Z,11.63
2023-03-28T05:08:18.166Z,10.63
2023-03-28T05:10:47.316Z,10.23
2023-03-28T05:13:15.112Z,12.18
2023-03-28T05:15:43.116Z,10.77
2023-03-28T05:18:11.590Z,12.25
2023-03-28T05:20:39.148Z,15.82
2023-03-28T05:23:07.301Z,15.15
2023-03-28T05:25:34.953Z,14.90
2023-03-28T05:28:04.528Z,14.13
2023-03-28T05:30:32.121Z,15.73
2023-03-28T05:35:51.916Z,16.80
2023-03-28T05:38:19.404Z,18.70
2023-03-28T05:40:47.187Z,20.30
2023-03-28T05:43:16.703Z,15.23
2023-03-28T05:45:44.458Z,14.57
2023-03-28T05:48:12.087Z,16.63
2023-03-28T05:50:39.794Z,17.92
2023-03-28T05:53:44.073Z,15.52
2023-03-28T05:56:14.446Z,17.38
2023-03-28T05:59:43.624Z,18.58
2023-03-28T06:02:52.049Z,18.73
2023-03-28T06:05:32.912Z,23.73
2023-03-28T06:08:00.742Z,21.20
2023-03-28T06:10:28.319Z,16.55
2023-03-28T06:12:56.182Z,12.80
2023-03-28T06:15:23.814Z,21.48
2023-03-28T06:17:58.238Z,16.75
2023-03-28T06:20:32.299Z,20.05
2023-03-28T06:23:09.179Z,17.52
2023-03-28T06:25:54.608Z,14.07
2023-03-28T06:28:22.361Z,22.13
2023-03-28T06:31:21.934Z,17.73
2023-03-28T06:33:49.507Z,17.15
2023-03-28T06:36:17.014Z,16.67
2023-03-28T06:38:46.026Z,21.08
2023-03-28T06:41:13.676Z,17.38
2023-03-28T06:43:42.882Z,16.67
2023-03-28T06:49:06.592Z,17.85
2023-03-28T06:51:34.345Z,19.38
2023-03-28T06:54:05.485Z,19.65
2023-03-28T06:56:33.537Z,20.27
2023-03-28T06:59:01.070Z,26.50
2023-03-28T07:01:28.595Z,27.92
2023-03-28T07:06:51.690Z,22.75
2023-03-28T07:09:20.588Z,18.98
2023-03-28T07:11:48.098Z,17.60
2023-03-28T07:17:08.017Z,17.20
2023-03-28T07:19:35.951Z,12.65
2023-03-28T07:22:03.642Z,18.08
2023-03-28T07:24:33.058Z,19.00
2023-03-28T07:27:14.863Z,25.35
2023-03-28T07:29:44.159Z,22.50
2023-03-28T07:32:11.787Z,15.80
2023-03-28T07:34:39.395Z,19.20
2023-03-28T07:37:07.031Z,20.08
2023-03-28T07:39:39.872Z,16.90
2023-03-28T07:42:10.506Z,16.58
2023-03-28T07:44:39.759Z,19.25
2023-03-28T07:47:15.794Z,16.98
2023-03-28T07:49:43.385Z,14.88
2023-03-28T07:52:11.776Z,18.75
2023-03-28T07:54:40.855Z,13.63
2023-03-28T07:57:08.462Z,14.85
2023-03-28T07:59:35.987Z,15.60
2023-03-28T08:02:04.874Z,13.30
2023-03-28T08:04:38.523Z,14.05
2023-03-28T08:07:07.991Z,17.10
2023-03-28T08:09:35.961Z,15.15
2023-03-28T08:12:08.829Z,20.23
2023-03-28T08:14:39.787Z,12.82
2023-03-28T08:17:07.379Z,11.65
2023-03-28T08:19:42.538Z,11.85
2023-03-28T08:22:12.443Z,9.75
2023-03-28T08:24:40.451Z,12.90
2023-03-28T08:27:09.964Z,8.25
2023-03-28T08:29:37.822Z,7.95
2023-03-28T08:32:07.543Z,12.43
2023-03-28T08:34:36.205Z,9.80
2023-03-28T08:37:07.581Z,12.20
2023-03-28T08:39:58.673Z,13.50
2023-03-28T08:42:33.894Z,11.45
2023-03-28T08:45:10.938Z,9.50
2023-03-28T08:47:42.361Z,13.60
2023-03-28T08:50:14.503Z,9.88
2023-03-28T08:52:42.801Z,10.15
2023-03-28T08:58:15.019Z,14.80
2023-03-28T09:00:42.726Z,12.25
2023-03-28T09:03:13.742Z,11.32
2023-03-28T09:05:48.541Z,12.70
2023-03-28T09:08:28.078Z,14.02
2023-03-28T09:11:10.949Z,16.60
2023-03-28T09:13:46.364Z,22.55
2023-03-28T09:16:25.280Z,18.55
2023-03-28T09:19:07.819Z,15.85
2023-03-28T09:24:41.476Z,15.52
2023-03-28T09:27:15.296Z,18.30
2023-03-28T09:29:45.970Z,16.77
2023-03-28T09:32:17.563Z,15.60
2023-03-28T09:37:42.093Z,16.17
2023-03-28T09:40:23.959Z,16.92
2023-03-28T09:43:03.417Z,15.80
2023-03-28T09:45:48.145Z,10.23
2023-03-28T09:48:22.171Z,12.55
2023-03-28T09:50:53.759Z,13.90
2023-03-28T09:53:49.965Z,9.60
2023-03-28T09:59:33.055Z,11.13
2023-03-28T10:02:04.132Z,9.50
2023-03-28T10:04:36.478Z,12.68
2023-03-28T10:07:19.647Z,12.10
2023-03-28T10:09:48.934Z,15.77
2023-03-28T10:12:43.646Z,13.30
2023-03-28T10:15:30.978Z,15.43
2023-03-28T10:18:02.326Z,7.55
2023-03-28T10:20:33.635Z,6.45
2023-03-28T10:23:03.246Z,8.55
2023-03-28T10:25:37.526Z,5.97
2023-03-28T10:28:06.328Z,7.80
2023-03-28T10:30:34.664Z,8.65
2023-03-28T10:33:30.185Z,5.47
2023-03-28T10:35:59.594Z,7.47
2023-03-28T10:41:23.806Z,7.55
2023-03-28T10:43:53.661Z,6.30
2023-03-28T10:46:22.944Z,8.13
2023-03-28T10:48:53.000Z,7.25
2023-03-28T10:51:25.050Z,8.15
2023-03-28T10:54:11.057Z,9.27
2023-03-28T10:56:41.439Z,7.35
2023-03-28T10:59:16.945Z,7.78
2023-03-28T11:02:06.414Z,7.30
2023-03-28T11:04:54.866Z,6.53
2023-03-28T11:07:47.943Z,7.10
2023-03-28T11:10:19.898Z,8.57
2023-03-28T11:12:56.680Z,8.85
2023-03-28T11:15:29.921Z,11.32
2023-03-28T11:18:10.066Z,8.68
2023-03-28T11:23:40.627Z,5.82
2023-03-28T11:26:10.484Z,6.65
2023-03-28T11:28:48.615Z,6.20
2023-03-28T11:31:18.727Z,4.90
2023-03-28T11:33:50.709Z,10.88
2023-03-28T11:36:22.172Z,7.50
2023-03-28T11:41:50.424Z,7.40
2023-03-28T11:44:20.419Z,9.07
2023-03-28T11:46:50.213Z,10.32
2023-03-28T11:49:24.197Z,17.65
2023-03-28T11:52:01.771Z,9.02
2023-03-28T11:54:33.452Z,5.95
2023-03-28T11:57:12.156Z,13.43
2023-03-28T11:59:43.177Z,11.13
2023-03-28T12:02:37.332Z,7.97
2023-03-28T12:05:33.292Z,7.35
2023-03-28T12:08:08.063Z,8.20
2023-03-28T12:13:32.519Z,14.02
2023-03-28T12:16:01.194Z,9.75
2023-03-28T12:18:31.031Z,10.20
2023-03-28T12:21:01.097Z,5.65
2023-03-28T12:23:37.837Z,7.85
2023-03-28T12:26:26.256Z,11.15
2023-03-28T12:28:58.199Z,9.07
2023-03-28T12:31:45.109Z,11.90
2023-03-28T12:34:14.914Z,10.00
2023-03-28T12:39:45.831Z,10.70
2023-03-28T12:42:16.332Z,12.65
2023-03-28T12:47:47.947Z,9.65
2023-03-28T12:50:17.653Z,11.70
2023-03-28T12:52:46.688Z,9.43
2023-03-28T13:04:45.016Z,9.90
2023-03-28T13:07:18.202Z,8.25
2023-03-28T13:09:52.473Z,6.87
2023-03-28T13:12:25.028Z,12.95
2023-03-28T13:15:04.009Z,6.68
2023-03-28T13:17:34.300Z,8.63
2023-03-28T13:20:14.233Z,8.73
2023-03-28T13:22:44.258Z,8.40
2023-03-28T13:25:29.703Z,11.63
2023-03-28T13:27:58.148Z,10.05
2023-03-28T13:30:28.900Z,13.30
2023-03-28T13:32:58.390Z,9.43
2023-03-28T13:35:40.449Z,11.48
2023-03-28T13:38:15.124Z,9.73
2023-03-28T13:40:46.318Z,11.38
2023-03-28T13:43:25.212Z,7.43
2023-03-28T13:45:55.947Z,7.63
2023-03-28T13:48:28.820Z,3.75
2023-03-28T13:51:22.265Z,2.75
2023-03-28T13:53:51.268Z,3.67
2023-03-28T13:56:23.375Z,2.83
2023-03-28T13:58:52.316Z,3.83
2023-03-28T14:01:24.419Z,2.28
2023-03-28T14:03:52.629Z,1.63
2023-03-28T14:06:22.497Z,1.00
2023-03-28T14:08:51.351Z,2.03
2023-03-28T14:11:21.430Z,0.98
2023-03-28T14:16:45.133Z,1.10
2023-03-28T14:19:20.041Z,4.07
2023-03-28T14:21:49.006Z,2.10
2023-03-28T14:24:19.366Z,0.85
2023-03-28T14:26:47.533Z,1.08
2023-03-28T14:29:17.496Z,0.90
2023-03-28T14:31:47.471Z,0.85
2023-03-28T14:34:17.376Z,3.13
2023-03-28T14:37:03.438Z,1.20
2023-03-28T14:39:31.700Z,1.10
2023-03-28T14:42:00.697Z,0.90
2023-03-28T14:44:29.553Z,2.33
2023-03-28T14:46:59.996Z,1.95
2023-03-28T14:49:28.027Z,1.27
2023-03-28T14:51:57.085Z,6.03
2023-03-28T14:54:29.319Z,0.82
2023-03-28T14:59:51.369Z,2.15
2023-03-28T15:02:25.211Z,0.82
2023-03-28T15:04:55.367Z,4.05
2023-03-28T15:07:26.390Z,3.13
2023-03-28T15:10:08.101Z,2.65
2023-03-28T15:12:40.624Z,4.22
2023-03-28T15:18:11.086Z,1.58
2023-03-28T15:20:39.390Z,0.95
2023-03-28T15:23:16.288Z,1.02
2023-03-28T15:25:44.914Z,1.42
2023-03-28T15:28:16.311Z,1.35
2023-03-28T15:30:58.555Z,2.42
2023-03-28T15:33:28.106Z,1.08
2023-03-28T15:36:08.711Z,0.98
2023-03-28T15:38:47.914Z,0.70
2023-03-28T15:41:20.015Z,1.77
2023-03-28T15:44:10.162Z,1.75
2023-03-28T15:46:38.594Z,1.63
2023-03-28T15:49:08.146Z,2.97
2023-03-28T15:51:43.655Z,1.27
2023-03-28T15:54:24.076Z,1.58
2023-03-28T15:57:00.127Z,1.20
2023-03-28T15:59:30.843Z,1.30
2023-03-28T16:02:16.995Z,2.25
2023-03-28T16:05:01.648Z,1.10
2023-03-28T16:10:28.123Z,1.40
2023-03-28T16:12:57.990Z,0.93
2023-03-28T16:15:25.657Z,1.20
2023-03-28T16:17:55.693Z,1.40
2023-03-28T16:20:25.644Z,1.40
2023-03-28T16:22:54.351Z,1.02
2023-03-28T16:25:22.384Z,1.98
2023-03-28T16:27:50.204Z,1.00
2023-03-28T16:30:20.588Z,0.80
2023-03-28T16:32:48.435Z,1.55
2023-03-28T16:35:16.747Z,1.90
2023-03-28T16:37:45.996Z,1.25
2023-03-28T16:40:16.263Z,0.65
2023-03-28T16:42:44.382Z,7.80
2023-03-28T16:45:13.810Z,1.45
2023-03-28T16:47:41.675Z,1.35
2023-03-28T16:50:10.263Z,1.80
2023-03-28T16:52:39.076Z,1.73
2023-03-28T16:55:12.799Z,1.58
2023-03-28T16:57:40.596Z,1.35
2023-03-28T17:00:15.605Z,1.23
2023-03-28T17:02:43.356Z,1.48
2023-03-28T17:05:13.167Z,1.60
2023-03-28T17:07:40.948Z,1.05
2023-03-28T17:10:18.714Z,1.25
2023-03-28T17:12:48.207Z,1.92
2023-03-28T17:15:15.928Z,0.90
2023-03-28T17:17:43.548Z,2.05
2023-03-28T17:20:12.646Z,0.70
2023-03-28T17:22:42.461Z,1.42
2023-03-28T17:25:11.952Z,0.68
2023-03-28T17:27:39.814Z,2.70
2023-03-28T17:30:08.259Z,1.48
2023-03-28T17:32:36.288Z,1.08
2023-03-28T17:35:04.338Z,2.35
2023-03-28T17:37:31.937Z,1.27
2023-03-28T17:39:59.545Z,1.88
2023-03-28T17:42:29.650Z,0.93
2023-03-28T17:44:58.388Z,1.38
2023-03-28T17:47:26.369Z,1.83
2023-03-28T17:49:55.946Z,1.30
2023-03-28T17:52:27.176Z,1.48
2023-03-28T17:54:55.080Z,1.05
2023-03-28T17:57:22.906Z,1.00
2023-03-28T17:59:52.521Z,0.85
2023-03-28T18:02:21.132Z,1.20
2023-03-28T18:04:48.890Z,1.98
2023-03-28T18:07:17.903Z,2.15
2023-03-28T18:09:45.978Z,0.77
2023-03-28T18:12:17.075Z,3.78
2023-03-28T18:18:06.798Z,1.63
2023-03-28T18:20:37.177Z,1.63
2023-03-28T18:23:20.178Z,1.05
2023-03-28T18:25:48.745Z,1.67
2023-03-28T18:28:26.548Z,0.90
2023-03-28T18:30:58.118Z,1.45
2023-03-28T18:33:29.133Z,1.15
2023-03-28T18:35:56.782Z,1.25
2023-03-28T18:38:47.321Z,1.20
2023-03-28T18:41:17.577Z,1.00
2023-03-28T18:43:55.758Z,1.02
2023-03-28T18:46:25.169Z,2.35
2023-03-28T18:48:55.887Z,2.08
2023-03-28T18:51:23.805Z,1.73
2023-03-28T18:54:10.521Z,1.35
2023-03-28T18:59:31.208Z,5.85
2023-03-28T19:02:00.921Z,2.85
2023-03-28T19:04:33.272Z,1.15
2023-03-28T19:07:00.855Z,1.83
2023-03-28T19:09:28.411Z,3.15
2023-03-28T19:11:56.537Z,2.60
2023-03-28T19:14:24.055Z,2.15
2023-03-28T19:16:51.634Z,2.22
2023-03-28T19:22:12.060Z,1.45
2023-03-28T19:24:39.968Z,1.13
2023-03-28T19:27:07.576Z,2.88
2023-03-28T19:32:35.805Z,3.72
2023-03-28T19:35:03.470Z,3.00
2023-03-28T19:37:32.293Z,1.55
2023-03-28T19:40:00.260Z,1.38
2023-03-28T19:42:27.904Z,2.03
2023-03-28T19:44:55.394Z,1.55
2023-03-28T19:47:24.792Z,1.50
2023-03-28T19:50:02.552Z,2.33
2023-03-28T19:55:46.844Z,2.08
2023-03-28T19:58:16.355Z,1.45
2023-03-28T20:00:43.828Z,1.20
2023-03-28T20:03:11.584Z,1.77
2023-03-28T20:05:41.673Z,1.95
2023-03-28T20:08:09.892Z,1.73
2023-03-28T20:10:39.947Z,1.63
2023-03-28T20:13:08.215Z,5.95
2023-03-28T20:15:41.420Z,2.55
2023-03-28T20:18:11.244Z,1.23
2023-03-28T20:20:39.354Z,2.00
2023-03-28T20:23:07.293Z,1.60
2023-03-28T20:25:37.715Z,1.50
2023-03-28T20:28:10.051Z,2.97
2023-03-28T20:30:49.855Z,1.52
2023-03-28T20:33:45.809Z,2.00
2023-03-28T20:36:38.130Z,1.83
2023-03-28T20:39:06.130Z,2.20
2023-03-28T20:41:33.719Z,3.15
2023-03-28T20:44:03.449Z,2.13
2023-03-28T20:46:34.555Z,2.38
2023-03-28T20:49:06.081Z,5.55
2023-03-28T20:51:39.184Z,1.98
2023-03-28T20:54:07.101Z,2.30
2023-03-28T20:56:34.725Z,1.33
2023-03-28T20:59:04.474Z,8.63
2023-03-28T21:01:33.653Z,2.70
2023-03-28T21:04:02.225Z,2.13
2023-03-28T21:06:33.336Z,1.52
2023-03-28T21:09:01.722Z,3.67
2023-03-28T21:11:30.813Z,1.48
2023-03-28T21:13:59.086Z,1.95
2023-03-28T21:16:26.828Z,2.85
2023-03-28T21:18:56.533Z,2.20
2023-03-28T21:24:21.061Z,0.82
2023-03-28T21:26:48.559Z,1.52
2023-03-28T21:29:16.258Z,2.13
2023-03-28T21:31:44.049Z,3.05
2023-03-28T21:34:13.151Z,1.88
2023-03-28T21:36:40.996Z,1.77
2023-03-28T21:39:09.587Z,1.17
2023-03-28T21:41:38.167Z,1.33
2023-03-28T21:44:05.929Z,4.97
2023-03-28T21:46:33.640Z,2.45
2023-03-28T21:49:01.160Z,1.45
2023-03-28T21:51:32.609Z,1.55
2023-03-28T21:54:00.158Z,2.65
2023-03-28T21:56:27.636Z,2.53
2023-03-28T21:58:55.372Z,1.83
2023-03-28T22:01:22.944Z,1.63
2023-03-28T22:03:51.008Z,2.17
2023-03-28T22:06:18.975Z,2.13
2023-03-28T22:08:52.390Z,1.52
2023-03-28T22:11:27.211Z,3.53
2023-03-28T22:14:01.479Z,3.08
2023-03-28T22:16:33.090Z,4.13
2023-03-28T22:19:00.909Z,3.50
2023-03-28T22:21:30.171Z,2.85
2023-03-28T22:23:59.282Z,3.10
2023-03-28T22:26:28.227Z,3.17
2023-03-28T22:28:57.666Z,1.73
2023-03-28T22:31:25.420Z,1.25
2023-03-28T22:33:52.943Z,2.47
2023-03-28T22:36:20.722Z,2.25
2023-03-28T22:38:48.317Z,2.65
2023-03-28T22:41:17.253Z,3.08
2023-03-28T22:43:45.210Z,3.13
2023-03-28T22:46:16.328Z,2.72
2023-03-28T22:48:44.090Z,2.45
2023-03-28T22:51:12.601Z,3.33
2023-03-28T22:53:40.278Z,2.17
2023-03-28T22:56:08.525Z,2.60
2023-03-28T22:58:37.442Z,2.78
2023-03-28T23:01:05.216Z,1.63
2023-03-28T23:03:32.718Z,2.25
2023-03-28T23:06:02.459Z,1.90
2023-03-28T23:08:29.972Z,2.80
2023-03-28T23:10:57.469Z,1.40
2023-03-28T23:13:25.091Z,2.25
2023-03-28T23:15:55.448Z,4.13
2023-03-28T23:18:23.047Z,3.70
2023-03-28T23:20:51.319Z,2.17
2023-03-28T23:23:19.268Z,2.55
2023-03-28T23:25:47.362Z,2.88
2023-03-28T23:28:17.296Z,2.60
2023-03-28T23:30:46.566Z,1.83
2023-03-28T23:33:18.366Z,4.18
2023-03-28T23:35:47.849Z,2.63
2023-03-28T23:38:17.495Z,3.75
2023-03-28T23:40:47.022Z,4.38
2023-03-28T23:43:14.669Z,2.13
2023-03-28T23:45:42.385Z,2.90
2023-03-28T23:48:10.022Z,2.22
2023-03-28T23:50:39.038Z,4.70
2023-03-28T23:53:06.621Z,4.88
2023-03-28T23:55:34.504Z,3.53
2023-03-28T23:58:04.443Z,2.10
